• Join FlightAware (Why Join?)
  • Login
  • US Flag 
08:48AM EST


 

Airport Tracker/Info


-or-


 

Live Flight TrackerFlight Track Log ✈ N708RK ✈ 17-Aug-2013 ✈ KMTO - KDPA

Flight Track Log - Related Links

Times and Time Zones

All times are in EDT time to prevent confusion due to time zone crossing. See the N708RK flight status page for this flight to view local times or setup timezone preferences in your user account.

Time Position Orientation Groundspeed Altitude Reporting Facility
EDT Latitude Longitude Course Direction KTS MPH feet Rate Location/Type
11:17AM 39.5542 -88.2533 346° North 192 221 15,000  Level Kansas City Center
11:18AM 39.5992 -88.2653 348° North 192 221 5,700 -3,720 Descending Kansas City Center
11:19AM 39.6519 -88.2853 344° North 190 219 7,600 1,740 Climbing Kansas City Center
11:20AM 39.7047 -88.3031 345° North 193 222 9,400 1,680 Climbing Kansas City Center
11:21AM 39.7572 -88.3231 344° North 196 226 11,100 1,800 Climbing Kansas City Center
11:22AM 39.9145 -88.4215 346° North  Level FlightAware Approximate
11:22AM 39.8242 -88.3478 344° North 203 234 13,100  Level Kansas City Center
11:23AM 39.9792 -88.4430 346° North  Level FlightAware Approximate
11:23AM 39.8811 -88.3700 343° North 207 238 14,000  Level Kansas City Center
11:24AM 39.9544 -88.3994 343° North 247 284 14,000  Level Kansas City Center
11:25AM 40.0325 -88.4289 344° North 275 316 14,000  Level Kansas City Center
11:26AM 40.1108 -88.4564 345° North 285 328 14,000  Level Kansas City Center
11:27AM 40.1878 -88.4858 344° North 289 333 14,000  Level Kansas City Center
11:29AM 40.2781 -88.5222 343° North 288 331 14,000  Level Chicago Center
11:30AM 40.3558 -88.5531 343° North 291 335 14,000  Level Chicago Center
11:31AM 40.4333 -88.5825 344° North 291 335 14,000  Level Chicago Center
11:32AM 40.5192 -88.6164 343° North 292 336 14,000  Level Chicago Center
11:33AM 40.5953 -88.6456 344° North 288 331 14,000  Level Chicago Center
11:34AM 40.6725 -88.6764 343° North 290 334 14,000  Level Chicago Center
11:35AM 40.7500 -88.7067 344° North 292 336 14,000 -300 Level Chicago Center
11:36AM 40.8286 -88.7328 346° North 293 337 13,500 -840 Descending Chicago Center
11:37AM 40.9294 -88.7172 North 304 350 12,300 -1,140 Descending Chicago Center
11:38AM 41.0092 -88.7033 North 295 339 11,200 -1,020 Descending Chicago Center
11:39AM 41.0881 -88.6928 North 288 331 10,300 -960 Descending Chicago Center
11:40AM 41.1667 -88.6811 North 285 328 9,300 -1,320 Descending Chicago Center
11:42AM 41.3197 -88.6583 North 276 318 6,300 -1,440 Descending Chicago Center
11:43AM 41.4025 -88.6461 North 257 296 5,000 -660 Descending Chicago Center
11:44AM 41.4697 -88.6322 North 247 284 5,000  Level Chicago Center
11:45AM 41.5408 -88.6236 North 252 290 5,000  Level Chicago Center
11:46AM 41.6119 -88.6122 North 256 295 5,000 -120 Level Chicago Center
11:47AM 41.6592 -88.5453 47° Northeast 246 283 4,800 -540 Descending Chicago Center
11:48AM 41.6917 -88.4653 61° Northeast 245 282 4,000 -900 Descending Chicago Center
11:49AM 41.7428 -88.4100 39° Northeast 237 273 3,000 -540 Descending Chicago Center
11:50AM 41.8006 -88.3533 36° Northeast 226 260 2,900 -420 Descending Chicago Center
11:51AM 41.8306 -88.2992 53° Northeast 197 227 2,200 -780 Descending Chicago Center
11:52AM 41.8606 -88.2628 42° Northeast 167 192 1,400 -600 Descending Chicago Center
11:53AM 41.9014 -88.2536 North 151 174 1,000 -420 Descending Chicago Center